Wind from 163 at 4 knots gusting 8

Air temperature 28.3° C
Dewpoint 28.3° C

Last reported at 2014-Apr-16 14:00 UTC.
Time now 2014-Apr-17 09:44 UTC

Location: N 19°16' W 081°18'.
View on Google Maps.

See reports from other nearby stations

Tides Stations Pressure Air Temp Water Temp Dewpoint Dewpoint depression Visibility Wind Speed Wind Dir Waves Ship positions

  
sailing weather and tide predictions

ZF1EJ Savannah KY weather

date/time (UTC)wind fromknots sea level pressurealtimeterstation pressurevisibilityair tempwater tempwave heightnotes
2014-Apr-16 14:00 163 4 gusting 8 28.3
2014-Apr-16 13:50 099 4 gusting 7 28.3
2014-Apr-16 13:40 154 4 gusting 7 28.3
2014-Apr-16 13:30 141 5 gusting 6 27.8
2014-Apr-16 13:20 100 6 gusting 8 28.3
2014-Apr-16 13:10 083 4 gusting 6 27.8
2014-Apr-16 13:00 126 5 gusting 6 27.8
2014-Apr-16 12:50 150 5 gusting 6 27.8
2014-Apr-16 12:40 141 2 gusting 6 27.2
2014-Apr-16 12:30 080 5 gusting 6 27.2
2014-Apr-16 12:20 052 1 gusting 2 26.7
2014-Apr-16 12:10 126 1 gusting 2 26.1
2014-Apr-16 12:00 140 1 gusting 2 25.6
2014-Apr-16 11:50 131 2 gusting 2 24.4
2014-Apr-16 11:40 145 2 gusting 2 23.9
2014-Apr-16 11:30 126 1 gusting 4 23.9
2014-Apr-16 11:20 111 2 gusting 2 23.9
2014-Apr-16 11:10 096 1 gusting 1 23.9
2014-Apr-16 11:00 091 1 gusting 2 23.9
2014-Apr-16 10:50 090 2 gusting 2 23.9
2014-Apr-16 10:40 101 2 gusting 2 23.9
2014-Apr-16 10:30 100 2 gusting 2 23.9
2014-Apr-16 10:20 093 2 gusting 2 23.9
2014-Apr-16 10:10 091 2 gusting 2 23.9
2014-Apr-16 10:00 076 2 gusting 2 23.9
2014-Apr-16 09:50 069 2 gusting 2 23.9
2014-Apr-16 09:40 058 1 gusting 1 23.9
2014-Apr-16 09:30 049 1 gusting 1 23.9
2014-Apr-16 09:20 069 1 gusting 2 23.9
2014-Apr-16 09:10 082 1 gusting 2 23.9
2014-Apr-16 09:00 087 3 gusting 4 23.9
2014-Apr-16 08:50 075 2 gusting 2 23.9
2014-Apr-16 08:40 079 2 gusting 2 23.9
2014-Apr-16 08:30 084 2 gusting 2 23.3
2014-Apr-16 08:20 078 2 gusting 4 23.3
2014-Apr-16 08:10 077 3 gusting 4 23.3
2014-Apr-16 08:00 075 4 gusting 4 23.3
2014-Apr-16 07:50 083 2 gusting 2 23.3
2014-Apr-16 07:40 090 2 gusting 2 23.3
2014-Apr-16 07:30 078 2 gusting 2 23.3
2014-Apr-16 07:20 079 1 gusting 2 23.3
2014-Apr-16 07:10 075 2 gusting 2 23.3
2014-Apr-16 07:00 062 2 gusting 2 23.9
2014-Apr-16 06:50 052 1 gusting 1 23.9
2014-Apr-16 06:40 096 2 gusting 2 23.9
2014-Apr-16 06:30 083 1 gusting 1 23.9
2014-Apr-16 06:20 074 1 gusting 1 23.9
2014-Apr-16 06:10 094 0 gusting 0 24.4
2014-Apr-16 06:00 101 0 gusting 0 24.4
2014-Apr-16 05:50 099 0 gusting 1 24.4
2014-Apr-16 05:40 105 1 gusting 2 24.4
2014-Apr-16 05:30 100 1 gusting 1 23.9
2014-Apr-16 05:20 092 1 gusting 1 23.9
2014-Apr-16 05:09 083 1 gusting 2 23.9
2014-Apr-16 05:00 059 1 gusting 2 23.9
2014-Apr-16 04:50 033 2 gusting 2 24.4
2014-Apr-16 04:40 025 0 gusting 0 24.4
2014-Apr-16 04:30 24.4
2014-Apr-16 04:10 048 0 gusting 0 24.4
2014-Apr-16 04:00 052 0 gusting 1 25.0
2014-Apr-16 03:50 069 1 gusting 1 25.0
2014-Apr-16 03:40 066 0 gusting 0 24.4
2014-Apr-16 03:30 075 1 gusting 1 25.0
2014-Apr-16 03:20 076 1 gusting 2 25.0
2014-Apr-16 03:10 079 2 gusting 2 25.0
2014-Apr-16 03:00 078 1 gusting 1 25.0
2014-Apr-16 02:50 076 1 gusting 1 25.0
2014-Apr-16 02:40 082 2 gusting 2 25.6
2014-Apr-16 02:30 090 2 gusting 2 25.0
2014-Apr-16 02:20 113 1 gusting 2 25.6
2014-Apr-16 02:10 078 1 gusting 1 25.6
2014-Apr-16 02:00 058 1 gusting 1 25.6
2014-Apr-16 01:50 125 1 gusting 1 25.6
2014-Apr-16 01:40 111 1 gusting 2 26.1
2014-Apr-16 01:30 113 1 gusting 2 25.6
2014-Apr-16 01:20 125 2 gusting 2 26.1
2014-Apr-16 01:10 087 1 gusting 2 26.1
2014-Apr-16 01:00 121 0 gusting 2 26.1
2014-Apr-16 00:50 130 1 gusting 2 26.1
2014-Apr-16 00:40 105 2 gusting 2 26.1
2014-Apr-16 00:30 119 2 gusting 4 26.7
2014-Apr-16 00:20 132 3 gusting 4 26.7
2014-Apr-16 00:10 116 2 gusting 4 26.7
2014-Apr-16 00:00 109 2 gusting 5 27.2
2014-Apr-15 23:50 130 2 gusting 6 27.2
2014-Apr-15 23:40 164 2 gusting 5 27.8
2014-Apr-15 23:30 127 4 gusting 4 27.8
2014-Apr-15 23:20 138 5 gusting 5 27.8
2014-Apr-15 23:10 164 3 gusting 6 27.8
2014-Apr-15 23:00 126 2 gusting 5 27.8
2014-Apr-15 22:50 153 6 gusting 7 27.8
2014-Apr-15 22:40 144 5 gusting 6 27.8
2014-Apr-15 22:30 169 2 gusting 6 28.3
2014-Apr-15 22:20 155 6 gusting 7 28.3
2014-Apr-15 22:10 148 5 gusting 6 28.3
2014-Apr-15 22:00 113 5 gusting 7 28.3
2014-Apr-15 21:50 177 6 gusting 8 28.9
2014-Apr-15 21:40 152 7 gusting 8 28.3
2014-Apr-15 21:30 176 2 gusting 8 28.9
2014-Apr-15 21:20 133 8 gusting 10 28.3
2014-Apr-15 21:10 175 7 gusting 11 28.9
2014-Apr-15 21:00 114 7 gusting 11 28.9
2014-Apr-15 20:50 175 9 gusting 12 28.9
2014-Apr-15 20:40 134 5 gusting 12 29.4
2014-Apr-15 20:30 184 6 gusting 11 28.9
2014-Apr-15 20:20 143 6 gusting 10 28.3
2014-Apr-15 20:10 123 5 gusting 10 29.4
2014-Apr-15 20:00 175 8 gusting 10 29.4
2014-Apr-15 19:50 215 7 gusting 8 29.4
2014-Apr-15 19:40 194 6 gusting 8 29.4
2014-Apr-15 19:30 136 5 gusting 7 29.4
2014-Apr-15 19:20 175 6 gusting 8 29.4
2014-Apr-15 19:10 205 6 gusting 6 28.9
2014-Apr-15 19:00 122 5 gusting 8 30.6
2014-Apr-15 18:50 176 6 gusting 8 29.4
2014-Apr-15 18:40 186 7 gusting 7 29.4
2014-Apr-15 18:30 198 6 gusting 8 29.4
2014-Apr-15 18:20 173 6 gusting 8 28.9
2014-Apr-15 18:10 174 6 gusting 8 29.4
2014-Apr-15 18:00 185 6 gusting 10 29.4
2014-Apr-15 17:50 220 5 gusting 7 30.0
2014-Apr-15 17:40 194 7 gusting 8 28.9
2014-Apr-15 17:30 181 7 gusting 7 28.9
2014-Apr-15 17:20 186 6 gusting 6 28.9
2014-Apr-15 17:10 193 7 gusting 7 28.3
2014-Apr-15 17:00 187 5 gusting 7 28.3
2014-Apr-15 16:50 221 6 gusting 8 28.9
2014-Apr-15 16:40 197 6 gusting 6 28.9
2014-Apr-15 16:30 199 6 gusting 7 28.9
2014-Apr-15 16:20 184 6 gusting 7 29.4
2014-Apr-15 16:10 200 6 gusting 7 28.9
2014-Apr-15 16:00 213 5 gusting 7 28.9
2014-Apr-15 15:50 202 6 gusting 7 29.4
2014-Apr-15 15:40 192 8 gusting 10 28.9
2014-Apr-15 15:30 192 5 gusting 7 28.9
2014-Apr-15 15:20 184 7 gusting 7 28.9
2014-Apr-15 15:10 192 5 gusting 8 28.9
2014-Apr-15 15:00 176 5 gusting 6 28.9
2014-Apr-15 14:50 174 6 gusting 8 28.9
2014-Apr-15 14:40 166 5 gusting 6 28.9
2014-Apr-15 14:30 182 6 gusting 7 28.3
2014-Apr-15 14:20 180 6 gusting 7 27.8
2014-Apr-15 14:10 182 6 gusting 7 27.8
2014-Apr-15 14:00 190 7 gusting 7 28.3
2014-Apr-15 13:50 191 5 gusting 8 28.3
2014-Apr-15 13:40 179 3 gusting 7 28.3
2014-Apr-15 13:30 194 6 gusting 7 28.3
2014-Apr-15 13:20 194 6 gusting 8 28.3
2014-Apr-15 13:10 184 4 gusting 7 27.8
2014-Apr-15 13:00 175 7 gusting 7 27.8
2014-Apr-15 12:50 173 6 gusting 6 27.2
2014-Apr-15 12:40 182 5 gusting 7 27.2
2014-Apr-15 12:30 196 6 gusting 8 27.2
2014-Apr-15 12:20 166 7 gusting 8 27.2
2014-Apr-15 12:10 178 5 gusting 7 27.2
2014-Apr-15 12:00 188 6 gusting 7 27.2
2014-Apr-15 11:50 169 6 gusting 8 26.7
2014-Apr-15 11:40 179 5 gusting 6 26.7
2014-Apr-15 11:30 181 4 gusting 6 26.7
2014-Apr-15 11:20 150 4 gusting 5 26.7
2014-Apr-15 11:10 190 6 gusting 7 26.7
2014-Apr-15 11:00 188 4 gusting 6 26.1
2014-Apr-15 10:50 203 4 gusting 7 26.7
2014-Apr-15 10:40 181 6 gusting 7 26.7
2014-Apr-15 10:30 191 5 gusting 7 26.7
2014-Apr-15 10:20 121 2 gusting 6 26.7
2014-Apr-15 10:10 176 5 gusting 6 26.7
2014-Apr-15 10:00 204 4 gusting 6 26.7
2014-Apr-15 09:50 186 4 gusting 6 26.7
2014-Apr-15 09:40 184 5 gusting 6 26.7
2014-Apr-15 09:30 201 5 gusting 6 26.7
2014-Apr-15 09:20 189 4 gusting 6 26.7
2014-Apr-15 09:10 188 6 gusting 6 26.7
2014-Apr-15 09:00 197 4 gusting 7 26.7